createdAt,value
2023-02-18T00:01:31.083Z,43.87
2023-02-18T00:03:59.726Z,42.23
2023-02-18T00:06:28.775Z,46.33
2023-02-18T00:08:59.011Z,46.87
2023-02-18T00:11:28.896Z,43.40
2023-02-18T00:14:01.502Z,43.80
2023-02-18T00:16:30.240Z,45.17
2023-02-18T00:18:58.798Z,48.43
2023-02-18T00:21:27.340Z,47.27
2023-02-18T00:23:55.846Z,48.43
2023-02-18T00:26:24.592Z,47.00
2023-02-18T00:28:54.511Z,50.57
2023-02-18T00:31:24.066Z,52.30
2023-02-18T00:33:58.744Z,46.13
2023-02-18T00:36:27.330Z,50.57
2023-02-18T00:38:56.531Z,54.80
2023-02-18T00:41:26.194Z,45.67
2023-02-18T00:43:56.127Z,49.67
2023-02-18T00:46:24.660Z,53.17
2023-02-18T00:48:53.828Z,48.33
2023-02-18T00:51:22.354Z,54.70
2023-02-18T00:53:51.058Z,53.77
2023-02-18T00:56:19.595Z,52.93
2023-02-18T00:58:48.017Z,50.00
2023-02-18T01:01:17.996Z,52.73
2023-02-18T01:03:46.678Z,48.70
2023-02-18T01:06:15.110Z,46.30
2023-02-18T01:08:43.692Z,55.10
2023-02-18T01:11:12.185Z,48.43
2023-02-18T01:13:40.713Z,40.50
2023-02-18T01:16:09.614Z,44.70
2023-02-18T01:18:39.918Z,43.43
2023-02-18T01:21:08.903Z,41.37
2023-02-18T01:23:37.451Z,44.30
2023-02-18T01:26:06.239Z,40.07
2023-02-18T01:28:35.075Z,43.93
2023-02-18T01:31:06.683Z,42.60
2023-02-18T01:33:35.303Z,48.23
2023-02-18T01:36:05.612Z,44.27
2023-02-18T01:38:34.099Z,41.30
2023-02-18T01:41:02.651Z,45.10
2023-02-18T01:43:31.396Z,45.37
2023-02-18T01:46:01.620Z,47.13
2023-02-18T01:48:31.715Z,49.43
2023-02-18T01:51:02.573Z,52.13
2023-02-18T01:53:33.085Z,49.83
2023-02-18T01:56:01.752Z,56.63
2023-02-18T01:58:30.576Z,49.47
2023-02-18T02:00:59.103Z,40.93
2023-02-18T02:03:27.576Z,44.63
2023-02-18T02:05:55.991Z,46.73
2023-02-18T02:08:24.436Z,46.27
2023-02-18T02:10:58.952Z,42.07
2023-02-18T02:13:42.571Z,44.57
2023-02-18T02:16:12.495Z,48.53
2023-02-18T02:18:47.898Z,45.57
2023-02-18T02:21:40.452Z,46.87
2023-02-18T02:24:27.758Z,45.50
2023-02-18T02:27:09.208Z,38.97
2023-02-18T02:29:52.507Z,46.60
2023-02-18T02:32:32.051Z,46.83
2023-02-18T02:35:01.924Z,47.93
2023-02-18T02:37:32.445Z,39.97
2023-02-18T02:40:04.310Z,42.00
2023-02-18T02:42:36.051Z,43.63
2023-02-18T02:45:06.368Z,40.53
2023-02-18T02:47:35.029Z,37.07
2023-02-18T02:50:05.766Z,32.03
2023-02-18T02:52:34.587Z,34.53
2023-02-18T02:55:03.083Z,35.47
2023-02-18T02:57:44.792Z,36.97
2023-02-18T03:00:13.592Z,30.63
2023-02-18T03:02:43.229Z,31.43
2023-02-18T03:05:16.409Z,32.63
2023-02-18T03:07:49.294Z,32.50
2023-02-18T03:10:19.702Z,34.60
2023-02-18T03:12:49.272Z,41.20
2023-02-18T03:15:20.108Z,37.80
2023-02-18T03:17:50.232Z,42.17
2023-02-18T03:20:21.073Z,39.53
2023-02-18T03:22:49.855Z,40.13
2023-02-18T03:25:18.445Z,34.00
2023-02-18T03:27:48.144Z,27.23
2023-02-18T03:30:17.753Z,28.87
2023-02-18T03:32:46.370Z,27.83
2023-02-18T03:35:15.402Z,26.13
2023-02-18T03:37:45.797Z,25.77
2023-02-18T03:40:14.371Z,20.80
2023-02-18T03:42:43.051Z,21.10
2023-02-18T03:45:11.504Z,21.57
2023-02-18T03:47:39.972Z,25.10
2023-02-18T03:50:09.234Z,26.67
2023-02-18T03:52:37.923Z,24.33
2023-02-18T03:55:09.332Z,31.40
2023-02-18T03:57:37.796Z,25.77
2023-02-18T04:00:06.909Z,27.53
2023-02-18T04:02:35.406Z,33.50
2023-02-18T04:05:03.857Z,25.67
2023-02-18T04:07:32.348Z,30.67
2023-02-18T04:10:00.814Z,36.00
2023-02-18T04:12:30.584Z,36.40
2023-02-18T04:14:59.002Z,33.23
2023-02-18T04:17:27.595Z,37.33
2023-02-18T04:19:56.029Z,39.50
2023-02-18T04:22:24.556Z,41.30
2023-02-18T04:24:53.184Z,41.07
2023-02-18T04:27:21.530Z,29.67
2023-02-18T04:29:51.601Z,37.33
2023-02-18T04:32:20.084Z,37.53
2023-02-18T04:34:48.772Z,33.20
2023-02-18T04:37:17.418Z,33.00
2023-02-18T04:39:45.930Z,29.13
2023-02-18T04:42:14.460Z,36.87
2023-02-18T04:44:43.157Z,29.40
2023-02-18T04:47:13.054Z,35.77
2023-02-18T04:49:41.612Z,33.03
2023-02-18T04:52:10.109Z,27.33
2023-02-18T04:54:38.857Z,29.83
2023-02-18T04:57:07.401Z,30.77
2023-02-18T04:59:35.782Z,28.10
2023-02-18T05:02:04.287Z,28.73
2023-02-18T05:04:34.105Z,33.87
2023-02-18T05:07:02.737Z,30.20
2023-02-18T05:09:31.241Z,32.50
2023-02-18T05:11:59.801Z,31.40
2023-02-18T05:14:28.276Z,27.47
2023-02-18T05:16:56.711Z,23.90
2023-02-18T05:19:25.164Z,26.70
2023-02-18T05:21:55.076Z,30.80
2023-02-18T05:24:23.591Z,27.03
2023-02-18T05:26:52.010Z,26.20
2023-02-18T05:29:20.396Z,27.30
2023-02-18T05:31:48.927Z,30.13
2023-02-18T05:34:17.491Z,33.33
2023-02-18T05:36:45.899Z,27.10
2023-02-18T05:39:15.795Z,25.80
2023-02-18T05:41:44.287Z,29.67
2023-02-18T05:44:31.322Z,39.10
2023-02-18T05:47:00.136Z,35.43
2023-02-18T05:49:28.704Z,39.70
2023-02-18T05:51:57.189Z,40.67
2023-02-18T05:54:27.046Z,35.23
2023-02-18T05:56:55.485Z,40.57
2023-02-18T05:59:23.937Z,37.73
2023-02-18T06:01:52.609Z,44.87
2023-02-18T06:04:21.059Z,47.03
2023-02-18T06:06:49.497Z,40.53
2023-02-18T06:09:18.048Z,38.70
2023-02-18T06:11:48.006Z,44.30
2023-02-18T06:14:16.536Z,37.03
2023-02-18T06:16:44.936Z,42.87
2023-02-18T06:19:13.350Z,36.60
2023-02-18T06:21:41.921Z,50.33
2023-02-18T06:24:10.393Z,44.47
2023-02-18T06:26:38.985Z,45.87
2023-02-18T06:29:08.846Z,44.80
2023-02-18T06:31:37.409Z,40.03
2023-02-18T06:34:05.913Z,37.77
2023-02-18T06:36:34.349Z,37.07
2023-02-18T06:39:04.044Z,35.43
2023-02-18T06:41:32.508Z,36.33
2023-02-18T06:44:00.958Z,46.27
2023-02-18T06:46:30.920Z,32.87
2023-02-18T06:49:01.105Z,35.13
2023-02-18T06:51:29.665Z,40.97
2023-02-18T06:53:58.159Z,40.83
2023-02-18T06:56:26.546Z,36.07
2023-02-18T06:58:55.078Z,32.17
2023-02-18T07:01:23.552Z,35.13
2023-02-18T07:03:53.341Z,33.40
2023-02-18T07:06:21.774Z,35.20
2023-02-18T07:08:50.167Z,29.03
2023-02-18T07:11:18.701Z,35.03
2023-02-18T07:13:47.242Z,26.23
2023-02-18T07:16:15.810Z,33.33
2023-02-18T07:18:44.299Z,41.47
2023-02-18T07:21:14.167Z,30.93
2023-02-18T07:23:42.547Z,37.13
2023-02-18T07:26:11.618Z,31.43
2023-02-18T07:28:40.180Z,41.83
2023-02-18T07:31:08.763Z,34.07
2023-02-18T07:33:37.401Z,38.23
2023-02-18T07:36:06.302Z,37.27
2023-02-18T07:38:36.377Z,29.47
2023-02-18T07:41:05.004Z,41.10
2023-02-18T07:43:33.683Z,37.27
2023-02-18T07:46:02.143Z,30.90
2023-02-18T07:48:30.627Z,31.50
2023-02-18T07:50:59.066Z,30.50
2023-02-18T07:53:27.608Z,34.03
2023-02-18T07:56:00.216Z,38.53
2023-02-18T07:58:32.290Z,28.30
2023-02-18T08:01:00.814Z,33.00
2023-02-18T08:03:30.484Z,27.87
2023-02-18T08:05:58.987Z,28.73
2023-02-18T08:08:28.582Z,28.33
2023-02-18T08:11:01.111Z,30.33
2023-02-18T08:13:31.181Z,24.83
2023-02-18T08:15:59.686Z,24.60
2023-02-18T08:18:28.067Z,36.87
2023-02-18T08:20:56.523Z,29.33
2023-02-18T08:23:26.284Z,31.63
2023-02-18T08:25:54.843Z,27.30
2023-02-18T08:28:25.245Z,29.47
2023-02-18T08:30:54.005Z,24.47
2023-02-18T08:33:22.535Z,22.20
2023-02-18T08:35:51.080Z,24.03
2023-02-18T08:38:19.762Z,29.73
2023-02-18T08:40:48.367Z,26.03
2023-02-18T08:43:17.054Z,26.07
2023-02-18T08:45:46.977Z,31.70
2023-02-18T08:48:20.661Z,34.80
2023-02-18T08:50:49.408Z,21.13
2023-02-18T08:53:17.954Z,29.57
2023-02-18T08:55:46.417Z,25.33
2023-02-18T08:58:14.924Z,29.83
2023-02-18T09:00:43.708Z,31.43
2023-02-18T09:03:14.445Z,27.77
2023-02-18T09:05:43.032Z,25.83
2023-02-18T09:08:11.501Z,22.50
2023-02-18T09:10:40.612Z,27.97
2023-02-18T09:13:09.260Z,32.20
2023-02-18T09:15:38.160Z,27.63
2023-02-18T09:18:06.963Z,25.53
2023-02-18T09:20:36.754Z,31.50
2023-02-18T09:23:05.263Z,26.93
2023-02-18T09:25:33.724Z,36.87
2023-02-18T09:28:02.377Z,29.00
2023-02-18T09:30:30.875Z,26.90
2023-02-18T09:32:59.328Z,35.60
2023-02-18T09:35:27.777Z,25.67
2023-02-18T09:37:57.886Z,25.97
2023-02-18T09:40:27.178Z,28.93
2023-02-18T09:42:55.870Z,28.90
2023-02-18T09:45:24.507Z,26.90
2023-02-18T09:47:53.158Z,25.07
2023-02-18T09:50:34.322Z,38.40
2023-02-18T09:53:04.897Z,24.20
2023-02-18T09:55:34.261Z,27.60
2023-02-18T09:58:03.035Z,25.00
2023-02-18T10:00:32.763Z,24.43
2023-02-18T10:03:02.980Z,22.30
2023-02-18T10:05:31.658Z,24.53
2023-02-18T10:08:00.901Z,21.47
2023-02-18T10:10:33.009Z,23.30
2023-02-18T10:13:01.434Z,28.37
2023-02-18T10:15:30.313Z,24.37
2023-02-18T10:17:59.036Z,23.67
2023-02-18T10:20:28.689Z,26.73
2023-02-18T10:22:57.127Z,21.37
2023-02-18T10:25:25.728Z,22.57
2023-02-18T10:27:55.594Z,22.80
2023-02-18T10:30:24.992Z,20.23
2023-02-18T10:32:54.049Z,19.60
2023-02-18T10:35:23.515Z,22.20
2023-02-18T10:37:55.685Z,20.87
2023-02-18T10:40:25.231Z,26.07
2023-02-18T10:43:00.386Z,23.17
2023-02-18T10:45:31.273Z,23.80
2023-02-18T10:48:02.688Z,25.43
2023-02-18T10:50:31.688Z,19.57
2023-02-18T10:53:01.495Z,20.80
2023-02-18T10:55:36.234Z,28.97
2023-02-18T10:58:06.114Z,33.77
2023-02-18T11:00:36.269Z,24.40
2023-02-18T11:03:08.672Z,18.67
2023-02-18T11:05:37.469Z,22.70
2023-02-18T11:08:06.447Z,18.33
2023-02-18T11:10:35.654Z,31.07
2023-02-18T11:13:04.779Z,21.40
2023-02-18T11:15:34.749Z,21.63
2023-02-18T11:18:13.712Z,16.00
2023-02-18T11:20:42.257Z,18.60
2023-02-18T11:23:18.050Z,22.57
2023-02-18T11:25:55.012Z,21.47
2023-02-18T11:28:28.962Z,24.93
2023-02-18T11:31:00.223Z,20.43
2023-02-18T11:33:31.433Z,23.40
2023-02-18T11:36:00.121Z,22.37
2023-02-18T11:38:28.891Z,25.10
2023-02-18T11:40:57.797Z,11.47
2023-02-18T11:43:26.241Z,17.27
2023-02-18T11:46:10.113Z,20.43
2023-02-18T11:48:39.896Z,22.83
2023-02-18T11:51:08.720Z,17.60
2023-02-18T11:53:37.924Z,18.17
2023-02-18T11:56:07.037Z,19.33
2023-02-18T11:58:38.548Z,22.97
2023-02-18T12:01:07.052Z,25.47
2023-02-18T12:03:38.320Z,21.77
2023-02-18T12:06:13.297Z,18.83
2023-02-18T12:08:42.874Z,15.93
2023-02-18T12:11:12.673Z,21.27
2023-02-18T12:13:41.764Z,20.10
2023-02-18T12:16:13.276Z,19.27
2023-02-18T12:18:56.356Z,18.90
2023-02-18T12:21:31.986Z,18.80
2023-02-18T12:24:04.202Z,17.97
2023-02-18T12:26:34.968Z,14.37
2023-02-18T12:29:09.545Z,19.83
2023-02-18T12:31:41.375Z,21.47
2023-02-18T12:34:15.285Z,16.70
2023-02-18T12:36:48.976Z,22.27
2023-02-18T12:39:20.685Z,16.90
2023-02-18T12:42:02.137Z,16.30
2023-02-18T12:44:35.883Z,25.07
2023-02-18T12:47:20.718Z,22.10
2023-02-18T12:49:56.760Z,20.67
2023-02-18T12:52:29.666Z,23.13
2023-02-18T12:55:16.784Z,19.43
2023-02-18T12:57:45.399Z,16.00
2023-02-18T13:00:33.289Z,18.30
2023-02-18T13:03:14.672Z,18.33
2023-02-18T13:05:44.280Z,17.93
2023-02-18T13:08:26.794Z,15.67
2023-02-18T13:11:06.549Z,15.60
2023-02-18T13:13:35.899Z,20.17
2023-02-18T13:16:05.315Z,19.90
2023-02-18T13:18:34.583Z,15.13
2023-02-18T13:21:05.463Z,13.80
2023-02-18T13:23:39.845Z,18.80
2023-02-18T13:26:08.811Z,13.37
2023-02-18T13:28:38.427Z,16.47
2023-02-18T13:31:16.812Z,12.97
2023-02-18T13:33:46.786Z,17.90
2023-02-18T13:36:18.710Z,12.60
2023-02-18T13:38:57.431Z,9.97
2023-02-18T13:41:26.053Z,10.03
2023-02-18T13:43:54.910Z,11.60
2023-02-18T13:46:23.488Z,13.47
2023-02-18T13:48:52.966Z,18.60
2023-02-18T13:51:29.843Z,14.03
2023-02-18T13:54:01.670Z,15.03
2023-02-18T13:56:30.533Z,14.10
2023-02-18T13:59:01.495Z,11.17
2023-02-18T14:01:39.322Z,13.37
2023-02-18T14:04:22.834Z,14.00
2023-02-18T14:07:06.282Z,16.40
2023-02-18T14:09:44.440Z,12.10
2023-02-18T14:12:20.298Z,14.40
2023-02-18T14:14:48.938Z,23.87
2023-02-18T14:17:38.382Z,23.53
2023-02-18T14:20:39.903Z,26.60
2023-02-18T14:23:13.588Z,27.53
2023-02-18T14:25:43.791Z,22.57
2023-02-18T14:28:29.861Z,22.27
2023-02-18T14:30:58.471Z,26.93
2023-02-18T14:33:26.916Z,15.43
2023-02-18T14:35:58.016Z,20.63
2023-02-18T14:38:35.158Z,18.73
2023-02-18T14:41:11.821Z,18.60
2023-02-18T14:43:57.929Z,16.53
2023-02-18T14:46:32.514Z,21.93
2023-02-18T14:49:18.867Z,27.20
2023-02-18T14:51:48.365Z,21.33
2023-02-18T14:54:19.144Z,23.23
2023-02-18T14:56:55.367Z,29.17
2023-02-18T14:59:23.835Z,20.67
2023-02-18T15:01:52.341Z,20.47
2023-02-18T15:04:20.889Z,21.83
2023-02-18T15:06:49.336Z,30.13
2023-02-18T15:09:19.863Z,19.50
2023-02-18T15:11:51.260Z,30.80
2023-02-18T15:14:20.231Z,21.17
2023-02-18T15:16:48.832Z,25.93
2023-02-18T15:19:19.013Z,22.90
2023-02-18T15:21:47.972Z,26.80
2023-02-18T15:24:20.516Z,28.60
2023-02-18T15:26:52.079Z,22.03
2023-02-18T15:29:21.049Z,19.83
2023-02-18T15:31:49.741Z,26.20
2023-02-18T15:34:36.003Z,26.57
2023-02-18T15:37:04.822Z,24.03
2023-02-18T15:39:33.625Z,23.10
2023-02-18T15:42:05.532Z,34.10
2023-02-18T15:44:34.294Z,30.47
2023-02-18T15:47:03.306Z,25.90
2023-02-18T15:49:32.118Z,26.03
2023-02-18T15:52:01.114Z,24.40
2023-02-18T15:54:29.686Z,24.93
2023-02-18T15:56:58.663Z,24.17
2023-02-18T15:59:28.831Z,27.13
2023-02-18T16:01:57.757Z,32.87
2023-02-18T16:04:26.837Z,25.80
2023-02-18T16:06:58.493Z,37.10
2023-02-18T16:09:27.898Z,26.13
2023-02-18T16:11:59.644Z,31.90
2023-02-18T16:14:33.545Z,29.70
2023-02-18T16:17:12.121Z,28.63
2023-02-18T16:19:51.681Z,31.80
2023-02-18T16:22:27.727Z,34.43
2023-02-18T16:24:57.485Z,26.63
2023-02-18T16:27:29.833Z,27.20
2023-02-18T16:30:00.215Z,22.80
2023-02-18T16:32:29.059Z,28.13
2023-02-18T16:34:57.464Z,27.10
2023-02-18T16:37:41.460Z,35.87
2023-02-18T16:40:18.909Z,32.67
2023-02-18T16:42:47.574Z,33.13
2023-02-18T16:45:17.606Z,29.67
2023-02-18T16:47:46.640Z,39.23
2023-02-18T16:50:16.193Z,31.23
2023-02-18T16:52:45.138Z,35.10
2023-02-18T16:55:17.506Z,35.93
2023-02-18T16:57:48.263Z,30.53
2023-02-18T17:00:19.137Z,28.67
2023-02-18T17:02:51.356Z,30.70
2023-02-18T17:05:26.366Z,34.33
2023-02-18T17:07:55.797Z,32.93
2023-02-18T17:10:24.357Z,38.17
2023-02-18T17:12:52.826Z,32.57
2023-02-18T17:15:28.681Z,33.67
2023-02-18T17:17:59.271Z,37.03
2023-02-18T17:20:28.021Z,32.17
2023-02-18T17:22:57.140Z,33.13
2023-02-18T17:25:26.929Z,33.47
2023-02-18T17:27:55.371Z,31.13
2023-02-18T17:30:23.810Z,31.03
2023-02-18T17:32:53.769Z,40.47
2023-02-18T17:35:22.822Z,34.33
2023-02-18T17:37:51.292Z,32.43
2023-02-18T17:40:20.396Z,33.77
2023-02-18T17:42:49.015Z,34.20
2023-02-18T17:45:19.733Z,32.37
2023-02-18T17:47:48.568Z,36.30
2023-02-18T17:50:18.918Z,32.50
2023-02-18T17:52:47.496Z,36.60
2023-02-18T17:55:21.875Z,43.50
2023-02-18T17:57:50.700Z,34.77
2023-02-18T18:00:21.047Z,35.50
2023-02-18T18:02:49.604Z,39.13
2023-02-18T18:05:20.750Z,35.20
2023-02-18T18:07:50.036Z,35.17
2023-02-18T18:10:18.848Z,41.07
2023-02-18T18:12:47.491Z,39.10
2023-02-18T18:15:23.456Z,30.90
2023-02-18T18:17:51.936Z,32.87
2023-02-18T18:20:21.804Z,34.77
2023-02-18T18:22:50.420Z,40.07
2023-02-18T18:25:19.631Z,31.63
2023-02-18T18:27:48.041Z,29.97
2023-02-18T18:30:16.658Z,32.17
2023-02-18T18:32:51.572Z,34.00
2023-02-18T18:35:25.564Z,34.33
2023-02-18T18:37:57.753Z,43.23
2023-02-18T18:40:28.200Z,44.03
2023-02-18T18:42:57.028Z,37.20
2023-02-18T18:45:25.930Z,43.20
2023-02-18T18:47:54.504Z,47.60
2023-02-18T18:50:23.168Z,34.33
2023-02-18T18:52:53.305Z,33.90
2023-02-18T18:55:22.652Z,35.17
2023-02-18T18:57:51.286Z,33.33
2023-02-18T19:00:20.214Z,32.97
2023-02-18T19:02:48.943Z,35.93
2023-02-18T19:05:21.366Z,36.40
2023-02-18T19:07:49.791Z,40.37
2023-02-18T19:10:19.786Z,38.40
2023-02-18T19:12:51.057Z,34.23
2023-02-18T19:15:20.315Z,41.53
2023-02-18T19:17:52.500Z,37.03
2023-02-18T19:20:21.556Z,40.27
2023-02-18T19:22:49.965Z,45.00
2023-02-18T19:25:20.135Z,37.07
2023-02-18T19:27:48.850Z,57.97
2023-02-18T19:30:18.600Z,43.47
2023-02-18T19:32:47.113Z,40.43
2023-02-18T19:35:15.628Z,35.73
2023-02-18T19:37:44.037Z,40.63
2023-02-18T19:40:13.335Z,33.90
2023-02-18T19:42:43.292Z,40.97
2023-02-18T19:45:15.172Z,39.87
2023-02-18T19:47:43.840Z,34.60
2023-02-18T19:50:13.894Z,31.60
2023-02-18T19:52:42.317Z,26.53
2023-02-18T19:55:10.911Z,31.67
2023-02-18T19:57:39.513Z,23.30
2023-02-18T20:00:10.278Z,28.90
2023-02-18T20:02:39.739Z,29.17
2023-02-18T20:05:08.529Z,27.67
2023-02-18T20:07:37.449Z,38.30
2023-02-18T20:10:06.115Z,27.87
2023-02-18T20:12:34.729Z,34.57
2023-02-18T20:15:03.281Z,31.23
2023-02-18T20:17:33.069Z,34.33
2023-02-18T20:20:01.768Z,35.13
2023-02-18T20:22:30.269Z,43.87
2023-02-18T20:24:58.670Z,44.50
2023-02-18T20:27:26.992Z,43.10
2023-02-18T20:29:55.431Z,48.37
2023-02-18T20:32:24.021Z,50.23
2023-02-18T20:34:53.973Z,46.73
2023-02-18T20:37:23.397Z,53.50
2023-02-18T20:39:51.947Z,48.33
2023-02-18T20:42:20.730Z,48.83
2023-02-18T20:44:49.562Z,47.87
2023-02-18T20:47:21.126Z,52.03
2023-02-18T20:49:49.537Z,58.40
2023-02-18T20:52:19.411Z,46.87
2023-02-18T20:54:47.895Z,54.17
2023-02-18T20:57:16.323Z,34.57
2023-02-18T20:59:45.108Z,51.57
2023-02-18T21:02:13.612Z,45.07
2023-02-18T21:04:42.124Z,55.23
2023-02-18T21:07:10.455Z,56.20
2023-02-18T21:09:40.474Z,57.03
2023-02-18T21:12:09.860Z,49.70
2023-02-18T21:14:39.437Z,49.10
2023-02-18T21:17:09.543Z,48.73
2023-02-18T21:19:38.192Z,52.67
2023-02-18T21:22:06.595Z,49.50
2023-02-18T21:24:35.568Z,43.93
2023-02-18T21:27:05.380Z,42.67
2023-02-18T21:29:34.197Z,46.20
2023-02-18T21:32:06.105Z,39.73
2023-02-18T21:34:34.914Z,51.37
2023-02-18T21:37:06.154Z,44.57
2023-02-18T21:39:34.761Z,44.17
2023-02-18T21:42:06.048Z,41.40
2023-02-18T21:44:42.390Z,59.20
2023-02-18T21:47:11.432Z,41.17
2023-02-18T21:49:39.829Z,49.70
2023-02-18T21:52:09.598Z,43.77
2023-02-18T21:54:39.326Z,49.13
2023-02-18T21:57:09.603Z,46.83
2023-02-18T21:59:38.429Z,47.70
2023-02-18T22:02:08.047Z,46.70
2023-02-18T22:04:36.871Z,41.27
2023-02-18T22:07:05.427Z,39.47
2023-02-18T22:09:33.875Z,41.23
2023-02-18T22:12:02.704Z,38.90
2023-02-18T22:14:32.723Z,42.47
2023-02-18T22:17:01.169Z,43.47
2023-02-18T22:19:29.900Z,47.53
2023-02-18T22:21:58.561Z,44.20
2023-02-18T22:24:27.368Z,32.90
2023-02-18T22:26:55.735Z,41.00
2023-02-18T22:29:24.560Z,41.33
2023-02-18T22:31:54.831Z,37.10
2023-02-18T22:34:23.821Z,43.30
2023-02-18T22:36:52.338Z,25.07
2023-02-18T22:39:21.016Z,26.33
2023-02-18T22:41:49.435Z,29.00
2023-02-18T22:44:18.679Z,25.57
2023-02-18T22:46:47.209Z,27.17
2023-02-18T22:49:17.517Z,20.43
2023-02-18T22:51:46.293Z,27.27
2023-02-18T22:54:15.513Z,24.70
2023-02-18T22:56:44.586Z,21.67
2023-02-18T22:59:13.046Z,24.27
2023-02-18T23:01:41.712Z,34.93
2023-02-18T23:04:11.076Z,26.70
2023-02-18T23:06:41.576Z,32.03
2023-02-18T23:09:10.325Z,23.90
2023-02-18T23:11:38.749Z,26.23
2023-02-18T23:14:19.318Z,25.20
2023-02-18T23:17:05.480Z,24.13
2023-02-18T23:19:34.149Z,31.43
2023-02-18T23:22:04.206Z,23.07
2023-02-18T23:24:33.497Z,29.50
2023-02-18T23:27:01.906Z,27.17
2023-02-18T23:29:30.573Z,18.77
2023-02-18T23:31:59.269Z,25.27
2023-02-18T23:34:28.569Z,23.10
2023-02-18T23:36:57.246Z,21.53
2023-02-18T23:39:27.067Z,25.07
2023-02-18T23:41:55.912Z,25.17
2023-02-18T23:44:24.755Z,20.17
2023-02-18T23:46:53.323Z,20.83
2023-02-18T23:49:23.417Z,27.93
2023-02-18T23:51:52.001Z,27.30
2023-02-18T23:54:20.459Z,29.17
2023-02-18T23:56:50.350Z,24.80
2023-02-18T23:59:18.756Z,28.40
